createdAt,value
2022-11-24T00:12:19.532Z,7.03
2022-11-24T00:25:16.860Z,6.47
2022-11-24T00:27:45.766Z,6.63
2022-11-24T00:30:15.056Z,7.30
2022-11-24T00:32:43.611Z,7.43
2022-11-24T00:35:12.147Z,7.00
2022-11-24T00:37:40.650Z,7.87
2022-11-24T00:40:10.801Z,7.10
2022-11-24T00:42:40.656Z,8.30
2022-11-24T00:45:14.178Z,7.07
2022-11-24T00:47:42.858Z,7.20
2022-11-24T00:50:12.255Z,8.20
2022-11-24T00:52:40.786Z,7.50
2022-11-24T00:55:09.923Z,6.70
2022-11-24T00:57:39.873Z,7.27
2022-11-24T01:00:10.145Z,7.47
2022-11-24T01:02:38.736Z,8.00
2022-11-24T01:05:08.054Z,7.37
2022-11-24T01:07:36.636Z,7.50
2022-11-24T01:10:06.678Z,7.30
2022-11-24T01:12:36.494Z,7.33
2022-11-24T01:15:08.046Z,6.87
2022-11-24T01:17:37.120Z,7.40
2022-11-24T01:20:06.906Z,8.00
2022-11-24T01:22:36.114Z,7.77
2022-11-24T01:25:05.252Z,7.27
2022-11-24T01:27:33.962Z,7.80
2022-11-24T01:30:03.034Z,7.17
2022-11-24T01:32:34.234Z,8.63
2022-11-24T01:35:02.927Z,7.57
2022-11-24T01:37:31.734Z,7.50
2022-11-24T01:40:00.383Z,7.77
2022-11-24T01:42:41.794Z,7.90
2022-11-24T01:45:35.985Z,7.63
2022-11-24T01:48:14.469Z,7.77
2022-11-24T01:50:44.569Z,8.00
2022-11-24T01:53:15.456Z,8.43
2022-11-24T01:55:44.451Z,7.63
2022-11-24T01:58:19.632Z,7.60
2022-11-24T02:00:48.193Z,8.43
2022-11-24T02:03:25.245Z,8.10
2022-11-24T02:06:05.850Z,7.80
2022-11-24T02:08:45.997Z,8.50
2022-11-24T02:11:14.921Z,8.10
2022-11-24T02:13:45.070Z,7.97
2022-11-24T02:16:14.066Z,7.07
2022-11-24T02:18:45.114Z,8.00
2022-11-24T02:21:17.090Z,7.93
2022-11-24T02:23:56.058Z,7.67
2022-11-24T02:26:44.616Z,7.80
2022-11-24T02:29:15.183Z,7.63
2022-11-24T02:31:49.192Z,7.43
2022-11-24T02:34:17.886Z,7.90
2022-11-24T02:36:49.043Z,7.80
2022-11-24T02:39:18.101Z,8.10
2022-11-24T02:41:53.609Z,7.47
2022-11-24T02:44:27.526Z,7.83
2022-11-24T02:47:05.508Z,7.57
2022-11-24T02:49:34.009Z,8.43
2022-11-24T02:52:03.019Z,8.70
2022-11-24T02:54:32.392Z,7.87
2022-11-24T02:57:03.151Z,7.67
2022-11-24T02:59:32.127Z,8.07
2022-11-24T03:02:00.706Z,8.47
2022-11-24T03:04:29.330Z,8.03
2022-11-24T03:06:58.303Z,8.43
2022-11-24T03:09:26.900Z,8.40
2022-11-24T03:11:55.537Z,8.57
2022-11-24T03:14:25.569Z,7.37
2022-11-24T03:16:54.034Z,7.63
2022-11-24T03:19:22.582Z,8.43
2022-11-24T03:21:51.363Z,8.67
2022-11-24T03:24:19.935Z,7.30
2022-11-24T03:26:48.597Z,8.00
2022-11-24T03:29:17.440Z,7.60
2022-11-24T03:31:47.420Z,7.33
2022-11-24T03:34:16.090Z,7.33
2022-11-24T03:36:44.717Z,7.43
2022-11-24T03:39:13.206Z,7.70
2022-11-24T03:41:41.760Z,7.50
2022-11-24T03:44:10.360Z,7.73
2022-11-24T03:46:39.047Z,7.77
2022-11-24T03:49:09.012Z,7.40
2022-11-24T03:51:37.677Z,8.03
2022-11-24T03:54:06.789Z,8.33
2022-11-24T03:56:35.415Z,8.30
2022-11-24T03:59:04.198Z,8.83
2022-11-24T04:01:32.840Z,8.13
2022-11-24T04:04:01.893Z,7.77
2022-11-24T04:06:31.865Z,9.23
2022-11-24T04:09:01.983Z,8.47
2022-11-24T04:11:48.110Z,8.00
2022-11-24T04:14:16.874Z,8.83
2022-11-24T04:16:45.458Z,8.43
2022-11-24T04:19:13.877Z,7.77
2022-11-24T04:21:43.623Z,9.03
2022-11-24T04:24:12.126Z,8.20
2022-11-24T04:26:40.505Z,8.47
2022-11-24T04:29:10.207Z,8.40
2022-11-24T04:31:38.684Z,8.17
2022-11-24T04:34:07.195Z,8.67
2022-11-24T04:36:35.476Z,8.33
2022-11-24T04:39:23.378Z,8.67
2022-11-24T04:41:53.838Z,8.40
2022-11-24T04:44:22.297Z,8.90
2022-11-24T04:46:50.694Z,8.10
2022-11-24T04:49:20.130Z,8.47
2022-11-24T04:51:48.881Z,8.60
2022-11-24T04:54:18.611Z,9.33
2022-11-24T04:56:51.114Z,9.00
2022-11-24T04:59:20.427Z,8.90
2022-11-24T05:01:48.957Z,8.00
2022-11-24T05:04:19.039Z,8.83
2022-11-24T05:06:47.551Z,9.57
2022-11-24T05:09:18.378Z,8.87
2022-11-24T05:11:46.670Z,8.90
2022-11-24T05:14:14.954Z,8.83
2022-11-24T05:16:43.277Z,8.53
2022-11-24T05:19:11.674Z,8.17
2022-11-24T05:21:40.151Z,8.87
2022-11-24T05:24:09.280Z,9.00
2022-11-24T05:26:38.854Z,8.80
2022-11-24T05:29:07.134Z,8.63
2022-11-24T05:31:35.416Z,9.03
2022-11-24T05:34:03.782Z,8.90
2022-11-24T05:36:49.731Z,9.37
2022-11-24T05:39:18.066Z,9.60
2022-11-24T05:41:47.777Z,9.10
2022-11-24T05:44:16.037Z,9.10
2022-11-24T05:46:44.488Z,8.37
2022-11-24T05:49:12.895Z,9.17
2022-11-24T05:51:41.152Z,8.63
2022-11-24T05:54:09.512Z,9.17
2022-11-24T05:56:37.752Z,9.07
2022-11-24T05:59:09.993Z,9.33
2022-11-24T06:01:38.629Z,9.03
2022-11-24T06:04:07.163Z,9.13
2022-11-24T06:06:35.394Z,9.07
2022-11-24T06:09:04.219Z,9.30
2022-11-24T06:11:32.491Z,9.33
2022-11-24T06:14:00.790Z,9.43
2022-11-24T06:16:30.721Z,9.30
2022-11-24T06:18:59.078Z,9.67
2022-11-24T06:21:27.331Z,10.80
2022-11-24T06:23:55.605Z,11.17
2022-11-24T06:26:23.921Z,11.60
2022-11-24T06:28:52.238Z,12.20
2022-11-24T06:31:20.633Z,12.43
2022-11-24T06:33:50.353Z,12.50
2022-11-24T06:36:18.771Z,11.27
2022-11-24T06:38:47.051Z,10.13
2022-11-24T06:41:17.987Z,10.10
2022-11-24T06:43:47.536Z,9.60
2022-11-24T06:46:15.874Z,9.47
2022-11-24T06:48:44.230Z,10.43
2022-11-24T06:51:14.643Z,9.63
2022-11-24T06:53:42.941Z,8.93
2022-11-24T06:56:16.761Z,9.23
2022-11-24T06:58:47.233Z,9.77
2022-11-24T07:01:17.253Z,9.23
2022-11-24T07:03:46.503Z,9.50
2022-11-24T07:06:16.839Z,9.30
2022-11-24T07:08:45.484Z,9.57
2022-11-24T07:11:18.080Z,9.37
2022-11-24T07:13:47.923Z,9.10
2022-11-24T07:16:19.327Z,9.53
2022-11-24T07:18:50.005Z,10.07
2022-11-24T07:21:20.896Z,10.10
2022-11-24T07:23:50.309Z,9.23
2022-11-24T07:26:19.619Z,9.83
2022-11-24T07:28:48.267Z,9.03
2022-11-24T07:31:20.045Z,11.37
2022-11-24T07:33:50.491Z,8.87
2022-11-24T07:36:21.291Z,11.00
2022-11-24T07:38:49.976Z,10.10
2022-11-24T07:41:20.739Z,10.60
2022-11-24T07:43:50.578Z,11.37
2022-11-24T07:46:20.898Z,9.27
2022-11-24T07:48:49.478Z,10.57
2022-11-24T07:51:19.268Z,11.03
2022-11-24T07:53:47.609Z,9.43
2022-11-24T07:56:15.874Z,10.43
2022-11-24T07:58:48.358Z,11.13
2022-11-24T08:01:21.552Z,10.57
2022-11-24T08:03:49.938Z,12.27
2022-11-24T08:06:26.111Z,10.47
2022-11-24T08:08:57.399Z,10.00
2022-11-24T08:11:26.450Z,10.47
2022-11-24T08:13:54.864Z,9.93
2022-11-24T08:16:23.369Z,11.47
2022-11-24T08:18:54.028Z,10.60
2022-11-24T08:21:24.765Z,11.87
2022-11-24T08:23:56.933Z,11.93
2022-11-24T08:26:26.380Z,11.40
2022-11-24T08:28:57.423Z,11.43
2022-11-24T08:31:32.860Z,11.23
2022-11-24T08:34:02.853Z,10.70
2022-11-24T08:36:33.193Z,11.77
2022-11-24T08:39:02.714Z,11.73
2022-11-24T08:41:32.248Z,10.80
2022-11-24T08:44:00.563Z,11.40
2022-11-24T08:46:28.847Z,10.40
2022-11-24T08:48:57.243Z,11.73
2022-11-24T08:51:28.461Z,11.60
2022-11-24T08:53:59.736Z,12.40
2022-11-24T08:56:29.291Z,11.93
2022-11-24T08:58:58.868Z,12.00
2022-11-24T09:01:28.522Z,12.13
2022-11-24T09:03:57.188Z,11.90
2022-11-24T09:06:31.218Z,11.50
2022-11-24T09:09:01.382Z,12.13
2022-11-24T09:11:30.713Z,12.03
2022-11-24T09:13:58.988Z,11.77
2022-11-24T09:16:29.708Z,11.50
2022-11-24T09:19:00.552Z,11.30
2022-11-24T09:21:30.524Z,11.80
2022-11-24T09:24:00.213Z,11.20
2022-11-24T09:26:31.245Z,11.37
2022-11-24T09:29:01.677Z,11.57
2022-11-24T09:31:34.495Z,9.97
2022-11-24T09:34:04.796Z,10.73
2022-11-24T09:36:33.226Z,10.50
2022-11-24T09:39:02.929Z,11.77
2022-11-24T09:41:51.342Z,11.73
2022-11-24T09:44:51.030Z,11.13
2022-11-24T09:47:33.557Z,11.13
2022-11-24T09:50:05.366Z,11.33
2022-11-24T09:52:45.097Z,10.10
2022-11-24T09:55:31.496Z,10.63
2022-11-24T09:58:18.355Z,9.43
2022-11-24T10:00:50.236Z,10.97
2022-11-24T10:03:28.670Z,9.97
2022-11-24T10:05:57.255Z,10.00
2022-11-24T10:08:48.679Z,10.87
2022-11-24T10:11:33.942Z,9.90
2022-11-24T10:14:30.600Z,9.93
2022-11-24T10:17:18.753Z,10.17
2022-11-24T10:19:54.812Z,8.93
2022-11-24T10:22:43.970Z,9.57
2022-11-24T10:25:22.292Z,9.47
2022-11-24T10:28:00.625Z,9.83
2022-11-24T10:30:29.911Z,9.17
2022-11-24T10:33:04.965Z,8.93
2022-11-24T10:35:42.660Z,9.90
2022-11-24T10:38:30.802Z,8.77
2022-11-24T10:41:06.127Z,9.77
2022-11-24T10:43:35.819Z,8.27
2022-11-24T10:46:12.769Z,9.07
2022-11-24T10:48:46.946Z,9.05
2022-11-24T10:51:51.569Z,8.83
2022-11-24T10:54:22.517Z,8.30
2022-11-24T10:56:55.064Z,8.80
2022-11-24T10:59:38.817Z,8.20
2022-11-24T11:02:39.442Z,8.13
2022-11-24T11:05:42.197Z,8.40
2022-11-24T11:08:21.591Z,7.97
2022-11-24T11:10:52.912Z,7.57
2022-11-24T11:13:28.558Z,7.93
2022-11-24T11:16:00.306Z,8.27
2022-11-24T11:18:34.198Z,8.75
2022-11-24T11:21:04.781Z,8.13
2022-11-24T11:23:37.093Z,6.93
2022-11-24T11:26:31.012Z,7.80
2022-11-24T11:34:57.270Z,7.80
2022-11-24T11:37:30.075Z,8.15
2022-11-24T11:39:59.397Z,7.32
2022-11-24T11:45:36.984Z,7.17
2022-11-24T11:48:28.030Z,7.63
2022-11-24T11:51:22.829Z,7.63
2022-11-24T11:54:07.014Z,8.87
2022-11-24T11:56:44.340Z,8.10
2022-11-24T11:59:41.141Z,7.90
2022-11-24T12:03:02.068Z,7.97
2022-11-24T12:05:47.658Z,7.97
2022-11-24T12:08:56.068Z,7.32
2022-11-24T12:11:36.230Z,7.10
2022-11-24T12:14:19.974Z,6.45
2022-11-24T12:17:03.884Z,6.63
2022-11-24T12:20:03.812Z,7.57
2022-11-24T12:22:45.172Z,6.75
2022-11-24T12:25:28.161Z,7.33
2022-11-24T12:28:17.893Z,7.13
2022-11-24T12:31:06.049Z,7.40
2022-11-24T12:34:04.227Z,7.43
2022-11-24T12:37:00.394Z,7.68
2022-11-24T12:39:44.129Z,7.50
2022-11-24T12:42:26.776Z,7.03
2022-11-24T12:45:17.348Z,7.00
2022-11-24T12:48:18.651Z,8.38
2022-11-24T12:50:47.965Z,9.20
2022-11-24T12:53:21.327Z,8.48
2022-11-24T12:55:51.952Z,7.75
2022-11-24T12:58:31.269Z,7.82
2022-11-24T13:01:16.549Z,9.30
2022-11-24T13:04:08.656Z,9.68
2022-11-24T13:06:49.798Z,8.80
2022-11-24T13:09:18.856Z,8.10
2022-11-24T13:11:51.280Z,8.48
2022-11-24T13:14:23.463Z,8.00
2022-11-24T13:19:50.828Z,8.25
2022-11-24T13:22:26.857Z,8.25
2022-11-24T13:25:17.201Z,7.35
2022-11-24T13:27:52.241Z,7.37
2022-11-24T13:31:10.685Z,8.53
2022-11-24T13:33:40.901Z,7.63
2022-11-24T13:36:35.656Z,8.43
2022-11-24T13:39:19.279Z,7.13
2022-11-24T13:42:42.875Z,7.13
2022-11-24T13:45:03.090Z,7.50
2022-11-24T13:47:39.212Z,7.30
2022-11-24T13:50:41.067Z,7.10
2022-11-24T13:53:17.444Z,6.95
2022-11-24T13:55:59.237Z,7.55
2022-11-24T13:58:32.951Z,7.07
2022-11-24T14:01:15.911Z,7.78
2022-11-24T14:04:31.449Z,6.40
2022-11-24T14:07:08.432Z,6.77
2022-11-24T14:09:44.249Z,7.00
2022-11-24T14:12:17.933Z,6.90
2022-11-24T14:14:48.676Z,6.68
2022-11-24T14:17:23.006Z,6.73
2022-11-24T14:19:53.554Z,6.67
2022-11-24T14:22:26.631Z,6.00
2022-11-24T14:24:58.354Z,7.20
2022-11-24T14:27:34.530Z,6.82
2022-11-24T14:30:06.624Z,7.00
2022-11-24T14:32:37.637Z,6.28
2022-11-24T14:35:24.323Z,6.63
2022-11-24T14:37:53.189Z,5.97
2022-11-24T14:40:43.643Z,6.20
2022-11-24T14:43:22.303Z,6.43
2022-11-24T14:45:58.732Z,6.37
2022-11-24T14:48:32.300Z,6.65
2022-11-24T14:51:14.080Z,5.55
2022-11-24T14:53:43.794Z,6.28
2022-11-24T14:56:25.403Z,6.28
2022-11-24T14:58:56.438Z,6.35
2022-11-24T15:01:33.788Z,6.40
2022-11-24T15:07:25.737Z,7.47
2022-11-24T15:09:57.887Z,6.20
2022-11-24T15:12:34.159Z,6.67
2022-11-24T15:15:06.195Z,6.20
2022-11-24T15:17:35.378Z,6.93
2022-11-24T15:20:17.991Z,7.00
2022-11-24T15:22:46.556Z,6.65
2022-11-24T15:25:32.645Z,6.28
2022-11-24T15:28:01.565Z,5.90
2022-11-24T15:30:31.147Z,5.95
2022-11-24T15:33:00.851Z,6.72
2022-11-24T15:35:33.636Z,6.13
2022-11-24T15:38:02.054Z,6.05
2022-11-24T15:40:30.566Z,7.32
2022-11-24T15:43:03.485Z,6.20
2022-11-24T15:45:35.845Z,6.35
2022-11-24T15:48:04.318Z,5.47
2022-11-24T15:50:34.151Z,6.45
2022-11-24T15:53:02.523Z,6.68
2022-11-24T15:55:31.061Z,6.13
2022-11-24T15:57:59.464Z,6.50
2022-11-24T16:00:27.688Z,5.77
2022-11-24T16:02:55.969Z,5.53
2022-11-24T16:05:24.253Z,6.67
2022-11-24T16:07:53.976Z,6.53
2022-11-24T16:10:29.206Z,6.82
2022-11-24T16:12:57.627Z,6.65
2022-11-24T16:15:26.059Z,6.00
2022-11-24T16:17:54.426Z,6.60
2022-11-24T16:20:23.178Z,6.72
2022-11-24T16:22:52.892Z,7.13
2022-11-24T16:25:21.220Z,6.63
2022-11-24T16:27:49.516Z,7.13
2022-11-24T16:30:18.221Z,6.30
2022-11-24T16:32:46.515Z,7.20
2022-11-24T16:35:15.057Z,7.85
2022-11-24T16:37:43.300Z,7.13
2022-11-24T16:40:14.138Z,8.68
2022-11-24T16:42:42.496Z,8.00
2022-11-24T16:45:13.975Z,7.80
2022-11-24T16:47:43.405Z,8.35
2022-11-24T16:50:13.289Z,8.93
2022-11-24T16:52:41.736Z,9.33
2022-11-24T16:55:13.477Z,8.50
2022-11-24T16:57:41.763Z,8.33
2022-11-24T17:00:11.935Z,7.60
2022-11-24T17:02:40.270Z,8.03
2022-11-24T17:05:09.738Z,9.33
2022-11-24T17:07:38.182Z,8.73
2022-11-24T17:10:08.823Z,9.57
2022-11-24T17:12:40.752Z,8.93
2022-11-24T17:15:31.873Z,8.23
2022-11-24T17:18:25.757Z,9.50
2022-11-24T17:20:46.744Z,8.83
2022-11-24T17:23:15.790Z,8.47
2022-11-24T17:25:44.272Z,10.00
2022-11-24T17:28:13.880Z,10.17
2022-11-24T17:30:42.232Z,10.30
2022-11-24T17:33:10.502Z,9.83
2022-11-24T17:35:38.878Z,10.13
2022-11-24T17:38:07.209Z,10.33
2022-11-24T17:40:35.517Z,10.97
2022-11-24T17:43:03.846Z,10.20
2022-11-24T17:45:33.569Z,10.10
2022-11-24T17:48:01.852Z,9.77
2022-11-24T17:50:30.169Z,10.80
2022-11-24T17:52:58.638Z,8.87
2022-11-24T17:55:26.883Z,10.37
2022-11-24T17:57:55.140Z,9.70
2022-11-24T18:00:24.000Z,8.40
2022-11-24T18:02:53.610Z,9.20
2022-11-24T18:05:21.962Z,9.47
2022-11-24T18:07:50.291Z,8.57
2022-11-24T18:10:18.952Z,8.33
2022-11-24T18:12:47.202Z,8.00
2022-11-24T18:15:15.668Z,8.47
2022-11-24T18:17:44.020Z,7.87
2022-11-24T18:20:14.425Z,8.80
2022-11-24T18:23:04.414Z,7.83
2022-11-24T18:25:31.175Z,7.93
2022-11-24T18:27:59.468Z,8.63
2022-11-24T18:30:27.776Z,8.30
2022-11-24T18:32:56.039Z,8.23
2022-11-24T18:35:25.647Z,8.57
2022-11-24T18:37:54.557Z,9.30
2022-11-24T18:40:22.855Z,8.50
2022-11-24T18:42:51.200Z,8.93
2022-11-24T18:45:19.564Z,8.53
2022-11-24T18:47:47.833Z,9.13
2022-11-24T18:50:17.146Z,8.83
2022-11-24T18:52:46.823Z,8.30
2022-11-24T18:55:15.331Z,8.47
2022-11-24T18:57:43.583Z,8.63
2022-11-24T19:00:13.951Z,8.67
2022-11-24T19:02:42.341Z,8.67
2022-11-24T19:05:10.847Z,9.53
2022-11-24T19:07:39.235Z,9.23
2022-11-24T19:10:11.106Z,9.33
2022-11-24T19:12:39.538Z,9.00
2022-11-24T19:15:09.665Z,9.37
2022-11-24T19:17:37.986Z,9.87
2022-11-24T19:20:08.688Z,9.30
2022-11-24T19:22:37.145Z,9.97
2022-11-24T19:25:08.595Z,9.70
2022-11-24T19:27:37.067Z,10.70
2022-11-24T19:30:07.118Z,9.47
2022-11-24T19:32:35.366Z,10.20
2022-11-24T19:35:03.658Z,10.37
2022-11-24T19:37:32.040Z,10.30
2022-11-24T19:40:00.318Z,10.30
2022-11-24T19:42:30.017Z,10.87
2022-11-24T19:44:58.329Z,10.97
2022-11-24T19:47:27.735Z,10.80
2022-11-24T19:49:55.984Z,9.77
2022-11-24T19:52:24.255Z,10.20
2022-11-24T19:54:52.870Z,10.70
2022-11-24T19:57:21.154Z,10.20
2022-11-24T19:59:51.556Z,10.90
2022-11-24T20:02:19.861Z,11.50
2022-11-24T20:04:48.192Z,12.00
2022-11-24T20:07:16.770Z,11.60
2022-11-24T20:09:45.041Z,12.30
2022-11-24T20:12:13.261Z,11.73
2022-11-24T20:14:41.478Z,11.77
2022-11-24T20:17:13.047Z,12.67
2022-11-24T20:19:41.439Z,11.90
2022-11-24T20:22:09.696Z,12.60
2022-11-24T20:24:38.009Z,11.63
2022-11-24T20:27:06.435Z,11.37
2022-11-24T20:29:34.828Z,11.10
2022-11-24T20:32:03.252Z,11.30
2022-11-24T20:34:33.288Z,10.93
2022-11-24T20:37:01.683Z,12.23
2022-11-24T20:39:30.090Z,12.40
2022-11-24T20:41:58.569Z,11.73
2022-11-24T20:44:28.031Z,12.03
2022-11-24T20:46:59.677Z,12.53
2022-11-24T20:49:29.267Z,12.17
2022-11-24T20:51:59.009Z,11.87
2022-11-24T20:54:28.033Z,11.63
2022-11-24T20:56:56.581Z,11.77
2022-11-24T20:59:26.560Z,11.97
2022-11-24T21:01:56.118Z,11.77
2022-11-24T21:04:27.302Z,12.50
2022-11-24T21:06:55.642Z,12.40
2022-11-24T21:09:27.104Z,13.17
2022-11-24T21:11:55.731Z,12.50
2022-11-24T21:14:24.660Z,12.63
2022-11-24T21:16:53.056Z,14.27
2022-11-24T21:19:21.537Z,14.17
2022-11-24T21:21:50.007Z,15.13
2022-11-24T21:24:21.459Z,15.13
2022-11-24T21:26:52.824Z,15.03
2022-11-24T21:29:23.600Z,14.97
2022-11-24T21:31:52.617Z,14.60
2022-11-24T21:34:21.226Z,15.57
2022-11-24T21:36:49.728Z,15.63
2022-11-24T21:39:18.756Z,15.80
2022-11-24T21:41:49.819Z,15.53
2022-11-24T21:44:18.179Z,15.73
2022-11-24T21:46:52.702Z,16.67
2022-11-24T21:49:24.108Z,16.10
2022-11-24T21:51:55.530Z,16.67
2022-11-24T21:54:24.863Z,17.03
2022-11-24T21:56:55.696Z,17.10
2022-11-24T21:59:24.043Z,16.63
2022-11-24T22:01:52.520Z,16.07
2022-11-24T22:04:21.077Z,16.03
2022-11-24T22:06:49.424Z,16.30
2022-11-24T22:09:18.579Z,16.57
2022-11-24T22:11:49.002Z,16.00
2022-11-24T22:14:18.827Z,17.03
2022-11-24T22:16:47.293Z,16.20
2022-11-24T22:19:15.750Z,16.33
2022-11-24T22:21:44.185Z,16.53
2022-11-24T22:24:12.872Z,17.03
2022-11-24T22:26:41.222Z,17.37
2022-11-24T22:29:09.679Z,17.30
2022-11-24T22:31:39.516Z,17.33
2022-11-24T22:34:07.995Z,17.83
2022-11-24T22:36:37.567Z,17.53
2022-11-24T22:39:07.608Z,17.23
2022-11-24T22:41:36.873Z,17.97
2022-11-24T22:44:06.219Z,18.63
2022-11-24T22:46:34.708Z,16.53
2022-11-24T22:49:04.484Z,18.10
2022-11-24T22:51:35.370Z,17.57
2022-11-24T22:54:05.936Z,17.00
2022-11-24T22:56:35.225Z,18.97
2022-11-24T22:59:04.967Z,17.40
2022-11-24T23:01:34.942Z,17.73
2022-11-24T23:04:04.915Z,18.93
2022-11-24T23:06:34.560Z,18.80
2022-11-24T23:09:06.673Z,18.73
2022-11-24T23:11:39.102Z,17.77
2022-11-24T23:14:09.570Z,17.93
2022-11-24T23:16:38.179Z,18.43
2022-11-24T23:19:08.600Z,17.90
2022-11-24T23:21:39.274Z,19.73
2022-11-24T23:24:12.091Z,18.80
2022-11-24T23:26:42.334Z,19.17
2022-11-24T23:29:12.785Z,19.80
2022-11-24T23:31:41.308Z,19.67
2022-11-24T23:34:11.498Z,20.53
2022-11-24T23:36:40.266Z,20.00
2022-11-24T23:39:15.261Z,20.57
2022-11-24T23:41:43.785Z,21.17
2022-11-24T23:44:12.240Z,20.83
2022-11-24T23:46:40.739Z,20.00
2022-11-24T23:49:10.687Z,21.77
2022-11-24T23:51:41.969Z,22.13
2022-11-24T23:54:11.113Z,21.20
2022-11-24T23:56:39.599Z,21.97
2022-11-24T23:59:10.876Z,20.63
